Decoded Metar for KJEF (JEFFERSON CITY in MO, USA) (IATA:JEF) | Meteo·Mobile Aviation Weather
aviador You're here:

KJEF Decoded Metar

JEFFERSON CITY in MO, USA
Report Time2018-09-22 09:53:00
UTC Time2018-09-22 10:43:57
Flight Rules vfr VFR
Wind040° at 05 kt
W.Decomp.*RWY 09: 3.0 kt HW 4 kt LCW
RWY 12: 0.6 kt HW 5 kt LCW
W.Rank040° ranks 36
Current wind is below 040° avg. (6.1)
Visibility9999 m
Phenomena:N/A
Clouds:N/A
Expected CloudBase > 2,400 ft AGL from Temp-Dew spread
CeilingNone
Temp15°C (ISA +1)
Dew Point09°C (68% RH)
AAT13.0°C
QNH1024 hPa
Density Alt466 ft
Elevation551 ft
Report Wrong Elevation
Raw Report
KJEF 220953Z AUTO 04005KT 10SM CLR 15/09 A3024 RMK AO2 SLP228
T01500089=

Extra information for KJEF:More info

Metar Taf Metar & Taf Last 4 Metars F.Rules Stats Wind Profile Meteogram Temp Stats Airport Information Weather charts Add Link Nearby VenuesMetar ALERT Operation Metar Decoded Social comments

AIRNAV info for KJEF